Time;durP1;ratioP1;P1;durP2;ratioP2;P2;SDS_P1;SDS_P2;PMS_P1;PMS_P2;Temp;Humidity;BMP_temperature;BMP_pressure;BME280_temperature;BME280_humidity;BME280_pressure;Samples;Min_cycle;Max_cycle;Signal;HPM_P1;HPM_P2
2020/12/31 00:01:50;;;;;;;;;3.75;3.50;18.40;74.70;;;16.91;57.77;102406.00;5095808;28;8819;-59
2020/12/31 00:04:17;;;;;;;;;2.25;1.75;18.40;74.60;;;16.96;57.66;102411.03;5101388;28;8816;-59
2020/12/31 00:06:43;;;;;;;;;4.50;4.50;18.50;73.40;;;16.99;58.42;102401.97;5096317;28;8780;-59
2020/12/31 00:09:10;;;;;;;;;1.75;1.75;18.50;74.40;;;16.99;58.96;102397.47;5078917;28;8820;-58
2020/12/31 00:11:37;;;;;;;;;5.00;4.00;18.80;75.10;;;17.02;57.05;102405.31;5086069;28;9536;-60
2020/12/31 00:14:07;;;;;;;;;1.00;1.00;18.70;74.90;;;17.02;58.52;102396.44;5091477;28;8803;-59
2020/12/31 00:16:37;;;;;;;;;5.25;5.25;18.60;74.00;;;17.04;59.26;102391.84;5075323;28;8879;-59
2020/12/31 00:19:04;;;;;;;;;4.00;4.00;18.70;73.60;;;17.02;60.06;102389.28;5099271;28;8842;-58
2020/12/31 00:21:31;;;;;;;;;5.75;5.00;18.60;73.20;;;17.02;55.86;102394.63;5076844;28;8822;-59
2020/12/31 00:23:58;;;;;;;;;5.25;5.25;18.60;73.40;;;17.03;56.31;102388.31;5095322;28;8880;-67
2020/12/31 00:26:25;;;;;;;;;4.25;4.25;18.60;74.90;;;17.05;56.50;102393.56;5091163;28;8792;-62
2020/12/31 00:28:51;;;;;;;;;5.00;4.75;18.50;73.50;;;17.06;56.50;102396.13;5091384;28;8784;-64
2020/12/31 00:31:18;;;;;;;;;6.00;5.00;18.60;74.00;;;17.06;56.55;102395.28;5089757;28;8852;-65
2020/12/31 00:33:45;;;;;;;;;4.00;3.25;18.50;73.30;;;17.06;58.25;102398.78;5096565;28;8778;-65
2020/12/31 00:36:12;;;;;;;;;5.50;4.00;18.60;72.50;;;17.07;57.60;102397.84;5092651;28;8811;-61
2020/12/31 00:38:39;;;;;;;;;2.50;2.50;18.60;74.50;;;17.06;56.21;102406.78;5090286;28;8858;-57
2020/12/31 00:41:05;;;;;;;;;2.75;2.75;18.60;73.80;;;17.07;58.99;102399.63;5089297;28;8788;-63
2020/12/31 00:43:32;;;;;;;;;4.00;3.50;18.50;75.40;;;17.07;58.62;102396.97;5096945;28;8808;-62
2020/12/31 00:45:59;;;;;;;;;4.25;3.50;18.60;73.50;;;17.08;60.55;102388.88;5094251;28;8812;-61
2020/12/31 00:48:26;;;;;;;;;2.50;2.50;18.60;74.40;;;17.08;56.83;102386.19;5092677;28;8846;-60
2020/12/31 00:50:53;;;;;;;;;6.25;4.75;18.90;73.80;;;17.09;55.53;102390.56;5096064;28;8934;-59
2020/12/31 00:53:19;;;;;;;;;3.25;2.50;18.60;73.20;;;17.09;57.10;102390.56;5072305;28;8892;-58
2020/12/31 00:55:46;;;;;;;;;2.00;2.00;18.50;74.40;;;17.10;59.38;102370.09;5096054;28;9532;-61
2020/12/31 00:58:13;;;;;;;;;4.00;4.00;19.00;74.80;;;17.10;57.21;102360.25;5094660;28;8864;-61
2020/12/31 01:00:40;;;;;;;;;3.25;2.00;18.70;74.20;;;17.09;58.46;102371.88;5089136;28;8776;-61
2020/12/31 01:03:07;;;;;;;;;2.50;2.50;18.70;74.20;;;17.11;59.28;102395.81;5087227;28;8903;-61
2020/12/31 01:05:35;;;;;;;;;2.00;1.75;18.70;74.30;;;17.16;56.43;102391.00;5086333;28;8772;-63
2020/12/31 01:08:02;;;;;;;;;2.00;2.00;18.80;74.90;;;17.17;59.24;102391.84;5094382;28;8830;-63
2020/12/31 01:10:29;;;;;;;;;1.75;1.25;18.60;74.70;;;17.19;59.46;102405.97;5093426;28;8827;-63
2020/12/31 01:12:56;;;;;;;;;2.25;0.75;18.70;74.90;;;17.23;59.63;102399.47;5090484;28;8780;-61
2020/12/31 01:15:23;;;;;;;;;1.00;1.00;18.60;73.90;;;17.24;57.20;102396.69;5094563;28;8781;-61
2020/12/31 01:17:50;;;;;;;;;1.00;0.75;18.70;74.00;;;17.26;57.02;102385.91;5098388;28;9571;-62
2020/12/31 01:20:17;;;;;;;;;1.00;1.00;18.60;73.90;;;17.27;56.42;102396.47;5092367;28;8963;-62
2020/12/31 01:22:44;;;;;;;;;2.00;2.00;18.80;74.00;;;17.26;58.36;102386.75;5092687;28;8794;-61
2020/12/31 01:25:11;;;;;;;;;2.00;1.75;18.50;73.70;;;17.29;58.03;102397.22;5090216;28;8824;-63
2020/12/31 01:27:38;;;;;;;;;2.25;2.00;19.00;73.90;;;17.30;58.41;102390.06;5089291;28;9581;-62
2020/12/31 01:30:07;;;;;;;;;2.00;1.50;18.80;74.10;;;17.32;58.03;102382.78;5086849;28;8805;-63
2020/12/31 01:32:33;;;;;;;;;3.00;2.25;18.80;73.50;;;17.31;58.02;102383.75;5093106;28;8805;-60
2020/12/31 01:35:01;;;;;;;;;2.25;1.50;18.80;74.10;;;17.34;56.25;102381.72;5089484;28;9559;-61
2020/12/31 01:37:28;;;;;;;;;1.75;0.75;18.80;73.90;;;17.35;56.68;102387.91;5089764;28;8814;-61
2020/12/31 01:39:55;;;;;;;;;0.75;0.25;18.80;73.90;;;17.35;56.20;102387.91;5089767;28;9620;-61
2020/12/31 01:42:21;;;;;;;;;0.75;0.75;18.80;74.60;;;17.35;56.38;102379.91;5091824;28;8791;-61
2020/12/31 01:44:48;;;;;;;;;1.00;1.00;18.80;73.80;;;17.35;56.62;102374.56;5091906;28;8787;-62
2020/12/31 01:47:16;;;;;;;;;2.00;1.25;18.70;73.70;;;17.35;56.08;102361.19;5091092;28;8814;-62
2020/12/31 01:49:44;;;;;;;;;2.75;1.50;18.70;73.60;;;17.35;55.75;102374.56;5075116;28;8822;-62
2020/12/31 01:52:15;;;;;;;;;0.00;0.00;18.90;73.70;;;17.35;56.02;102371.88;5101786;28;8813;-61
2020/12/31 01:54:47;;;;;;;;;0.00;0.00;18.70;73.70;;;17.35;55.81;102370.09;5087950;28;8792;-61
2020/12/31 01:57:14;;;;;;;;;1.00;1.00;18.70;73.70;;;17.33;55.48;102372.00;5088042;28;9492;-61
2020/12/31 01:59:41;;;;;;;;;1.00;1.00;18.90;74.80;;;17.34;56.59;102378.22;5095884;28;8785;-61
2020/12/31 02:02:09;;;;;;;;;0.75;0.75;18.60;74.80;;;17.45;56.21;102374.78;5100347;28;8785;-61
2020/12/31 02:04:38;;;;;;;;;1.75;0.75;18.80;74.30;;;17.50;55.98;102365.50;5098050;28;8782;-61
2020/12/31 02:07:07;;;;;;;;;0.50;0.50;18.90;73.90;;;17.65;56.25;102360.03;5089639;28;8772;-61
2020/12/31 02:09:33;;;;;;;;;0.00;0.00;19.00;74.30;;;17.74;56.43;102360.22;5091171;28;8846;-61
2020/12/31 02:12:07;;;;;;;;;2.75;0.00;19.30;73.50;;;17.85;56.12;102355.97;5088185;28;8805;-61
2020/12/31 02:14:33;;;;;;;;;0.00;0.00;19.50;72.90;;;17.96;55.92;102356.03;5092354;28;8830;-61
2020/12/31 02:17:00;;;;;;;;;0.00;0.00;19.60;72.30;;;18.09;55.44;102361.34;5091518;28;9540;-61
2020/12/31 02:19:27;;;;;;;;;0.25;0.00;19.90;71.80;;;18.19;54.67;102357.03;5091352;28;9523;-60
2020/12/31 02:21:54;;;;;;;;;0.00;0.00;20.00;71.60;;;18.29;54.59;102360.72;5096555;28;8792;-61
2020/12/31 02:24:21;;;;;;;;;0.00;0.00;20.20;71.50;;;18.37;55.07;102369.06;5095920;28;8788;-61
2020/12/31 02:26:49;;;;;;;;;0.00;0.00;20.30;71.60;;;18.49;54.39;102363.75;5093246;28;8819;-61
2020/12/31 02:29:18;;;;;;;;;0.00;0.00;20.30;71.50;;;18.60;54.27;102362.00;5090469;28;8811;-61
2020/12/31 02:31:47;;;;;;;;;0.00;0.00;20.50;71.40;;;18.70;54.17;102370.19;5093295;28;8857;-61
2020/12/31 02:34:14;;;;;;;;;0.00;0.00;20.40;71.30;;;18.78;54.72;102370.50;5096534;28;8775;-61
2020/12/31 02:36:42;;;;;;;;;0.20;0.00;20.60;71.90;;;18.87;54.50;102377.81;5089721;28;8810;-61
2020/12/31 02:39:12;;;;;;;;;0.00;0.00;20.60;71.80;;;18.96;54.53;102381.63;5092100;28;8825;-61
2020/12/31 02:41:41;;;;;;;;;2.00;0.00;20.70;71.10;;;19.07;52.79;102367.41;5070834;28;8836;-61
2020/12/31 02:44:08;;;;;;;;;0.00;0.00;21.00;70.60;;;19.13;53.57;102374.97;5089054;28;8792;-61
2020/12/31 02:46:36;;;;;;;;;0.00;0.00;20.90;70.60;;;19.23;52.85;102375.09;5072855;28;8794;-60
2020/12/31 02:49:03;;;;;;;;;0.00;0.00;21.00;70.40;;;19.31;53.45;102375.41;5072918;28;9597;-60
2020/12/31 02:51:32;;;;;;;;;0.00;0.00;20.90;71.30;;;19.37;53.90;102371.38;5082124;28;8882;-60
2020/12/31 02:53:59;;;;;;;;;0.00;0.00;21.10;71.30;;;19.33;53.32;102362.72;5053501;28;8816;-61
2020/12/31 02:56:26;;;;;;;;;0.00;0.00;21.00;70.50;;;19.24;53.92;102364.28;5093715;28;8799;-60
2020/12/31 02:58:53;;;;;;;;;0.00;0.00;20.60;70.50;;;19.20;53.25;102373.53;5086701;28;8834;-60
2020/12/31 03:01:21;;;;;;;;;0.00;0.00;20.60;71.70;;;19.20;53.23;102367.31;5094140;28;8795;-60
2020/12/31 03:03:50;;;;;;;;;0.00;0.00;20.60;72.00;;;19.22;54.06;102360.88;5094930;28;8796;-60
2020/12/31 03:06:17;;;;;;;;;0.00;0.00;20.70;72.50;;;19.26;55.24;102358.81;5094804;28;8868;-60
2020/12/31 03:08:45;;;;;;;;;0.00;0.00;20.80;72.40;;;19.27;55.16;102358.69;5083397;28;8824;-60
2020/12/31 03:11:20;;;;;;;;;0.00;0.00;21.00;72.20;;;19.22;55.52;102352.84;5094384;28;8788;-60
2020/12/31 03:13:48;;;;;;;;;0.00;0.00;20.80;71.90;;;19.18;55.12;102353.19;5094679;28;8796;-60
2020/12/31 03:16:15;;;;;;;;;0.00;0.00;20.50;72.90;;;19.17;55.26;102346.13;5091661;28;8788;-61
2020/12/31 03:18:42;;;;;;;;;0.00;0.00;20.70;72.80;;;19.25;55.49;102349.06;5088723;28;8834;-60
2020/12/31 03:21:09;;;;;;;;;0.00;0.00;20.90;73.50;;;19.24;55.94;102344.69;5087620;28;8772;-60
2020/12/31 03:23:37;;;;;;;;;0.00;0.00;20.80;73.50;;;19.19;53.94;102345.03;5091081;28;8792;-60
2020/12/31 03:26:07;;;;;;;;;0.00;0.00;20.80;72.40;;;19.19;54.46;102337.00;5093638;28;8835;-60
2020/12/31 03:28:34;;;;;;;;;0.00;0.00;20.60;72.80;;;19.22;54.57;102335.91;5092895;28;8807;-60
2020/12/31 03:31:01;;;;;;;;;0.00;0.00;20.50;72.90;;;19.21;56.15;102327.03;5091646;28;8819;-60
2020/12/31 03:33:27;;;;;;;;;0.00;0.00;20.80;72.70;;;19.17;56.31;102314.84;5092122;28;8764;-60
2020/12/31 03:35:54;;;;;;;;;0.00;0.00;20.90;72.60;;;19.14;56.76;102325.78;5092847;28;8873;-60
2020/12/31 03:38:22;;;;;;;;;0.00;0.00;20.60;72.90;;;19.08;54.15;102321.78;5093521;28;8803;-61
2020/12/31 03:40:49;;;;;;;;;0.00;0.00;20.40;72.70;;;19.08;54.53;102315.53;5094813;28;8764;-61
2020/12/31 03:43:18;;;;;;;;;0.00;0.00;20.40;73.70;;;19.13;55.58;102317.88;5085287;28;9543;-60
2020/12/31 03:45:45;;;;;;;;;0.00;0.00;20.50;74.10;;;19.12;57.08;102311.66;5093528;28;8787;-60
2020/12/31 03:48:12;;;;;;;;;0.00;0.00;20.60;73.60;;;19.09;57.38;102302.03;5093592;28;8882;-60
2020/12/31 03:50:41;;;;;;;;;0.00;0.00;20.40;73.60;;;19.05;57.78;102291.69;5093480;28;8792;-60
2020/12/31 03:53:08;;;;;;;;;0.20;0.00;20.60;74.00;;;19.02;58.10;102286.56;5092937;28;8938;-60
2020/12/31 03:55:35;;;;;;;;;0.00;0.00;20.40;73.70;;;18.97;58.42;102275.34;5087497;28;8790;-61
2020/12/31 03:58:02;;;;;;;;;0.00;0.00;20.20;73.60;;;18.93;55.12;102268.53;5091235;28;9556;-61
2020/12/31 04:00:29;;;;;;;;;1.00;1.00;20.30;73.50;;;18.93;55.80;102281.91;5089090;28;8766;-62
2020/12/31 04:02:56;;;;;;;;;0.00;0.00;20.20;74.50;;;18.96;55.38;102281.69;5094572;28;9560;-62
2020/12/31 04:05:23;;;;;;;;;0.00;0.00;20.50;74.40;;;18.95;56.92;102280.81;5097512;28;9208;-62
2020/12/31 04:07:49;;;;;;;;;0.00;0.00;20.40;74.10;;;18.92;56.77;102273.03;5105883;28;8815;-62
2020/12/31 04:10:16;;;;;;;;;0.00;0.00;20.40;73.50;;;18.91;55.56;102275.84;5096045;28;8902;-63
2020/12/31 04:12:43;;;;;;;;;0.00;0.00;20.40;73.50;;;18.87;54.91;102276.06;5093852;28;8799;-61
2020/12/31 04:15:10;;;;;;;;;0.00;0.00;20.40;73.80;;;18.88;56.01;102284.97;5091907;28;8775;-62
2020/12/31 04:17:37;;;;;;;;;0.00;0.00;20.30;74.30;;;18.91;55.71;102282.06;5090904;28;8802;-62
2020/12/31 04:20:06;;;;;;;;;2.00;1.00;20.30;74.20;;;18.90;56.85;102283.00;5094033;28;8830;-61
2020/12/31 04:22:32;;;;;;;;;0.00;0.00;20.40;73.70;;;18.89;56.78;102283.16;5090485;28;8818;-62
2020/12/31 04:24:59;;;;;;;;;0.00;0.00;20.30;73.60;;;18.85;55.21;102271.81;5082828;28;8807;-62
2020/12/31 04:27:26;;;;;;;;;0.00;0.00;20.20;74.00;;;18.86;55.76;102268.16;5094178;28;8850;-62
2020/12/31 04:29:53;;;;;;;;;0.00;0.00;20.20;74.50;;;18.89;56.12;102270.59;5091299;28;8796;-59
2020/12/31 04:32:20;;;;;;;;;0.00;0.00;20.30;74.90;;;18.90;56.43;102266.09;5073534;28;8792;-63
2020/12/31 04:34:47;;;;;;;;;0.00;0.00;20.40;74.20;;;18.86;56.45;102268.16;5092783;28;8776;-62
2020/12/31 04:37:14;;;;;;;;;0.00;0.00;20.50;73.90;;;18.84;55.71;102264.75;5093739;28;8808;-62
2020/12/31 04:39:40;;;;;;;;;0.00;0.00;20.40;73.90;;;18.82;55.85;102267.53;5088908;28;8838;-64
2020/12/31 04:42:07;;;;;;;;;0.00;0.00;20.20;74.30;;;18.80;55.80;102273.97;5089869;28;9602;-64
2020/12/31 04:44:36;;;;;;;;;0.00;0.00;20.30;74.60;;;18.83;56.98;102268.41;5092694;28;8775;-63
2020/12/31 04:47:05;;;;;;;;;1.00;0.00;20.30;75.20;;;18.84;56.60;102283.50;5104066;28;8856;-63
2020/12/31 04:49:52;;;;;;;;;0.00;0.00;20.30;74.40;;;18.82;56.11;102270.22;5093642;28;8788;-64
2020/12/31 04:52:20;;;;;;;;;0.00;0.00;20.30;74.10;;;18.79;55.44;102273.13;5084460;28;8822;-63
2020/12/31 04:54:47;;;;;;;;;0.00;0.00;20.20;74.10;;;18.76;57.13;102276.06;5094121;28;8914;-63
2020/12/31 04:57:14;;;;;;;;;1.00;0.00;20.00;75.00;;;18.76;55.50;102273.38;5076121;28;8799;-63
2020/12/31 04:59:41;;;;;;;;;0.00;0.00;20.30;74.60;;;18.78;56.60;102266.09;5094016;28;8812;-63
2020/12/31 05:02:08;;;;;;;;;0.00;0.00;20.20;75.00;;;18.79;56.51;102267.78;5094615;28;8798;-64
2020/12/31 05:04:35;;;;;;;;;0.20;0.20;20.40;74.50;;;18.78;56.91;102260.72;5098780;28;8792;-64
2020/12/31 05:07:01;;;;;;;;;0.00;0.00;20.20;74.20;;;18.77;57.56;102255.47;5091852;28;8795;-63
2020/12/31 05:09:28;;;;;;;;;1.00;0.00;20.40;74.30;;;18.74;56.03;102258.38;5087298;28;8788;-63
2020/12/31 05:11:56;;;;;;;;;0.00;0.00;20.00;75.10;;;18.76;55.79;102253.78;5096981;28;8776;-63
2020/12/31 05:14:37;;;;;;;;;0.00;0.00;20.20;74.70;;;18.79;56.50;102258.91;5087244;28;8829;-63
2020/12/31 05:17:17;;;;;;;;;0.00;0.00;20.20;74.80;;;18.77;56.74;102250.97;5096814;28;8786;-63
2020/12/31 05:19:45;;;;;;;;;0.00;0.00;20.10;74.10;;;18.75;56.54;102252.94;5098075;28;8826;-63
2020/12/31 05:22:18;;;;;;;;;0.80;0.00;20.00;74.10;;;18.74;56.68;102245.84;5095913;28;8792;-63
2020/12/31 05:24:51;;;;;;;;;0.00;0.00;20.10;74.30;;;18.71;56.49;102254.09;5094160;28;8820;-63
2020/12/31 05:27:27;;;;;;;;;0.00;0.00;20.30;75.20;;;18.74;55.71;102261.91;5091670;28;8806;-63
2020/12/31 05:30:05;;;;;;;;;0.00;0.00;20.10;74.80;;;18.74;56.08;102258.38;5088331;28;8828;-63
2020/12/31 05:32:38;;;;;;;;;0.00;0.00;20.20;74.60;;;18.75;56.65;102255.63;5091537;28;8912;-63
2020/12/31 05:35:15;;;;;;;;;1.00;0.00;20.10;74.10;;;18.71;56.52;102248.75;5090541;28;8890;-63
2020/12/31 05:37:44;;;;;;;;;0.00;0.00;20.40;74.40;;;18.70;56.10;102251.53;5093646;28;8827;-64
2020/12/31 05:40:13;;;;;;;;;0.00;0.00;20.20;74.40;;;18.68;55.73;102251.69;5094723;28;8882;-64
2020/12/31 05:42:43;;;;;;;;;0.00;0.00;20.10;74.50;;;18.68;55.61;102251.69;5088349;28;8878;-63
2020/12/31 05:45:14;;;;;;;;;0.00;0.00;20.10;74.90;;;18.70;56.76;102244.38;5075441;28;8786;-63
2020/12/31 05:47:54;;;;;;;;;0.00;0.00;20.10;74.90;;;18.71;57.43;102254.09;5089597;28;8816;-63
2020/12/31 05:50:27;;;;;;;;;0.00;0.00;20.30;74.60;;;18.72;57.33;102255.81;5102454;28;8797;-63
2020/12/31 05:52:55;;;;;;;;;0.00;0.00;20.20;74.40;;;18.69;56.15;102248.00;5093317;28;8814;-62
2020/12/31 05:55:25;;;;;;;;;0.40;0.20;20.20;75.20;;;18.69;56.31;102242.66;5083876;28;8776;-62
2020/12/31 05:57:57;;;;;;;;;0.60;0.00;20.00;74.70;;;18.69;56.40;102244.50;5082906;28;8835;-61
2020/12/31 06:00:30;;;;;;;;;1.00;0.00;20.10;74.90;;;18.73;56.46;102237.94;5087203;28;8788;-60
2020/12/31 06:03:00;;;;;;;;;0.00;0.00;20.10;75.20;;;18.80;56.51;102231.16;5082656;28;8822;-67
2020/12/31 06:05:31;;;;;;;;;0.00;0.00;20.30;75.30;;;18.81;57.07;102239.06;5088092;28;8776;-61
2020/12/31 06:07:59;;;;;;;;;1.00;0.00;20.50;74.80;;;18.80;57.01;102220.44;5089375;28;8883;-60
2020/12/31 06:10:31;;;;;;;;;0.00;0.00;20.40;74.80;;;18.78;56.25;102225.94;5080407;28;8804;-60
2020/12/31 06:13:05;;;;;;;;;0.00;0.00;20.30;75.00;;;18.76;56.29;102203.78;5085300;28;8792;-60
2020/12/31 06:15:37;;;;;;;;;1.00;0.00;20.00;75.10;;;18.75;56.61;102201.16;5086254;28;8922;-60
2020/12/31 06:18:06;;;;;;;;;0.00;0.00;20.10;76.10;;;18.73;56.69;102203.97;5088369;28;8854;-61
2020/12/31 06:20:39;;;;;;;;;0.40;0.40;20.10;75.70;;;18.70;56.78;102212.25;5088706;28;8816;-61
2020/12/31 06:23:14;;;;;;;;;0.80;0.00;20.00;75.80;;;18.68;57.11;102200.81;5088780;28;8890;-61
2020/12/31 06:25:47;;;;;;;;;1.80;1.00;20.10;76.10;;;18.68;57.01;102195.47;5089576;28;8788;-61
2020/12/31 06:28:20;;;;;;;;;1.00;0.60;19.90;76.10;;;18.65;56.96;102195.72;5089122;28;8780;-61
2020/12/31 06:30:53;;;;;;;;;0.20;0.20;19.70;76.10;;;18.62;57.35;102198.59;5089592;28;9541;-61
2020/12/31 06:33:44;;;;;;;;;0.00;0.00;19.90;76.20;;;18.61;57.27;102179.03;5071719;28;8780;-61
2020/12/31 06:36:12;;;;;;;;;0.00;0.00;20.00;76.30;;;18.58;57.68;102176.59;5083189;28;8803;-61
2020/12/31 06:38:48;;;;;;;;;0.00;0.00;19.80;76.30;;;18.57;58.03;102174.00;5089794;28;8844;-61
2020/12/31 06:41:42;;;;;;;;;0.00;0.00;19.80;76.30;;;18.54;58.30;102171.59;5075535;28;8826;-61
2020/12/31 06:44:16;;;;;;;;;0.00;0.00;19.70;76.30;;;18.52;57.20;102163.69;5085686;28;9583;-62
2020/12/31 06:46:46;;;;;;;;;0.00;0.00;19.80;76.40;;;18.50;57.62;102162.97;5072594;28;8812;-61
2020/12/31 06:49:14;;;;;;;;;0.00;0.00;19.60;76.20;;;18.49;57.67;102160.38;5090375;28;8846;-62
2020/12/31 06:51:42;;;;;;;;;0.00;0.00;19.70;76.40;;;18.48;57.63;102156.03;5087992;28;8919;-62
2020/12/31 06:54:11;;;;;;;;;0.00;0.00;19.60;76.50;;;18.47;57.63;102148.94;5088861;28;8943;-62
2020/12/31 06:56:49;;;;;;;;;0.00;0.00;19.70;76.70;;;18.45;58.32;102151.75;5089727;28;8834;-62
2020/12/31 06:59:36;;;;;;;;;0.00;0.00;19.80;76.70;;;18.43;58.11;102146.50;5077246;28;8816;-62
2020/12/31 07:02:23;;;;;;;;;0.00;0.00;19.60;76.60;;;18.42;58.08;102127.94;5089806;28;8840;-62
2020/12/31 07:04:50;;;;;;;;;0.00;0.00;19.60;76.50;;;18.39;57.81;102106.72;5089138;28;8958;-62
2020/12/31 07:07:20;;;;;;;;;0.00;0.00;19.60;76.50;;;18.39;57.42;102107.63;5094423;28;8787;-62
2020/12/31 07:10:01;;;;;;;;;0.00;0.00;19.60;76.40;;;18.38;57.82;102087.16;5074406;28;8813;-62
2020/12/31 07:12:46;;;;;;;;;0.00;0.00;19.60;76.30;;;18.36;57.75;102078.41;5089247;28;10160;-62
2020/12/31 07:15:17;;;;;;;;;0.00;0.00;19.70;76.50;;;18.35;57.82;102076.72;5087995;28;8935;-62
2020/12/31 07:17:50;;;;;;;;;0.00;0.00;19.50;76.40;;;18.36;57.54;102069.53;5094467;28;8830;-62
2020/12/31 07:20:18;;;;;;;;;0.00;0.00;19.60;76.40;;;18.34;58.77;102076.81;5094150;28;9508;-62
2020/12/31 07:22:49;;;;;;;;;0.40;0.00;19.80;76.60;;;18.32;58.08;102071.59;5093798;28;9554;-62
2020/12/31 07:25:18;;;;;;;;;0.00;0.00;19.60;76.50;;;18.31;58.30;102075.22;5093799;28;8820;-62
2020/12/31 07:27:47;;;;;;;;;0.00;0.00;19.50;76.50;;;18.29;57.93;102077.16;5092811;28;8880;-62
2020/12/31 07:30:19;;;;;;;;;0.00;0.00;19.60;76.60;;;18.30;57.70;102091.41;5085619;28;8818;-62
2020/12/31 07:33:00;;;;;;;;;0.00;0.00;19.70;76.70;;;18.29;57.47;102089.69;5085927;28;8876;-62
2020/12/31 07:35:42;;;;;;;;;1.00;0.00;19.60;77.20;;;18.26;57.95;102096.13;5091275;28;8772;-62
2020/12/31 07:38:15;;;;;;;;;0.20;0.00;19.60;76.60;;;18.26;57.81;102093.47;5090316;28;8898;-61
2020/12/31 07:40:44;;;;;;;;;0.00;0.00;19.50;76.60;;;18.26;58.00;102092.63;5092045;28;8808;-61
2020/12/31 07:43:16;;;;;;;;;0.00;0.00;19.60;76.70;;;18.25;58.05;102106.97;5092707;28;8796;-60
2020/12/31 07:45:54;;;;;;;;;0.00;0.00;19.70;76.90;;;18.22;58.51;102108.91;5073419;28;8791;-61
2020/12/31 07:48:24;;;;;;;;;0.00;0.00;19.60;77.00;;;18.23;58.11;102117.78;5074532;28;8871;-61
2020/12/31 07:50:59;;;;;;;;;1.00;0.00;19.50;76.70;;;18.20;58.16;102118.03;5092696;28;8784;-60
2020/12/31 07:53:30;;;;;;;;;0.00;0.00;19.50;76.90;;;18.21;58.37;102133.94;5092802;28;8794;-59
2020/12/31 07:55:58;;;;;;;;;0.00;0.00;19.60;76.90;;;18.21;58.62;102144.63;5090151;28;8872;-61
2020/12/31 07:58:32;;;;;;;;;0.00;0.00;19.50;76.80;;;18.20;58.38;102136.75;5091189;28;8814;-61
2020/12/31 08:01:07;;;;;;;;;0.00;0.00;19.70;77.00;;;18.17;58.22;102132.50;5074642;28;8776;-58
2020/12/31 08:03:35;;;;;;;;;0.00;0.00;19.50;76.90;;;18.16;58.61;102130.75;5094676;28;8802;-61
2020/12/31 08:06:04;;;;;;;;;0.00;0.00;19.50;76.80;;;18.16;58.24;102125.41;5091649;28;8780;-61
2020/12/31 08:08:32;;;;;;;;;0.00;0.00;19.60;77.00;;;18.15;58.32;102120.19;5092219;28;8802;-61
2020/12/31 08:11:06;;;;;;;;;0.00;0.00;19.50;77.00;;;18.13;58.53;102124.81;5093915;28;8802;-61
2020/12/31 08:13:32;;;;;;;;;0.00;0.00;19.50;77.00;;;18.13;58.75;102127.47;5081994;28;8776;-60
2020/12/31 08:15:59;;;;;;;;;0.00;0.00;19.40;77.00;;;18.11;58.23;102132.94;5089686;28;8768;-60
2020/12/31 08:18:26;;;;;;;;;0.00;0.00;19.40;77.10;;;18.12;58.63;102140.00;5091911;28;8800;-61
2020/12/31 08:20:56;;;;;;;;;0.00;0.00;19.40;77.00;;;18.13;59.15;102140.84;5092664;28;8811;-61
2020/12/31 08:23:41;;;;;;;;;0.00;0.00;19.40;76.90;;;18.11;59.04;102142.78;5075542;28;8832;-61
2020/12/31 08:26:15;;;;;;;;;0.00;0.00;19.20;77.00;;;18.09;58.60;102140.25;5077120;28;8817;-61
2020/12/31 08:28:44;;;;;;;;;0.00;0.00;19.40;77.00;;;18.09;59.13;102140.25;5084685;28;8786;-62
2020/12/31 08:31:16;;;;;;;;;0.00;0.00;19.40;77.10;;;18.07;58.88;102147.53;5071203;28;8888;-62
2020/12/31 08:33:44;;;;;;;;;0.00;0.00;19.40;77.30;;;18.09;58.52;102160.78;5089642;28;8812;-62
2020/12/31 08:36:11;;;;;;;;;0.00;0.00;19.50;77.30;;;18.09;58.79;102171.47;5091224;28;8804;-62
2020/12/31 08:38:39;;;;;;;;;0.00;0.00;19.40;77.20;;;18.06;58.95;102169.03;5089764;28;8824;-61
2020/12/31 08:41:09;;;;;;;;;0.00;0.00;19.40;77.40;;;18.05;59.43;102165.50;5089802;28;8820;-62
2020/12/31 08:43:40;;;;;;;;;0.75;0.00;19.20;77.30;;;18.06;59.03;102185.06;5086161;28;8794;-62
2020/12/31 08:46:22;;;;;;;;;0.00;0.00;19.40;77.40;;;18.05;59.36;102162.84;5090706;28;8846;-62
2020/12/31 08:48:56;;;;;;;;;0.00;0.00;19.30;77.40;;;18.03;59.14;102171.94;5089353;28;8800;-62
2020/12/31 08:51:29;;;;;;;;;0.00;0.00;19.40;77.50;;;18.05;59.30;102164.66;5091514;28;8795;-62
2020/12/31 08:54:03;;;;;;;;;0.00;0.00;19.30;77.40;;;18.02;58.87;102159.56;5087488;28;9566;-62
2020/12/31 08:56:34;;;;;;;;;0.00;0.00;19.30;77.50;;;18.03;58.79;102143.38;5086990;28;8813;-62
2020/12/31 08:59:08;;;;;;;;;0.00;0.00;19.30;77.40;;;18.01;59.18;102145.31;5085804;28;8853;-62
2020/12/31 09:01:36;;;;;;;;;0.00;0.00;19.50;77.60;;;18.00;58.88;102136.44;5092214;28;9512;-62
2020/12/31 09:04:21;;;;;;;;;0.00;0.00;19.10;77.30;;;17.99;58.92;102134.75;5090133;28;8840;-62
2020/12/31 09:06:52;;;;;;;;;0.00;0.00;19.20;77.40;;;17.98;59.24;102130.34;5090773;28;8819;-62
2020/12/31 09:09:28;;;;;;;;;0.00;0.00;19.40;77.60;;;17.99;59.19;102132.06;5093751;28;9488;-62
2020/12/31 09:12:03;;;;;;;;;0.00;0.00;19.30;77.60;;;17.98;59.61;102134.84;5090528;28;8797;-62
2020/12/31 09:14:33;;;;;;;;;0.00;0.00;19.30;77.60;;;17.97;59.08;102134.00;5080886;28;8799;-62
2020/12/31 09:17:01;;;;;;;;;3.00;0.00;19.30;77.50;;;17.96;59.41;102123.41;5092807;28;8776;-62
2020/12/31 09:19:28;;;;;;;;;0.00;0.00;19.30;77.70;;;17.95;59.26;102116.38;5089844;28;8821;-61
2020/12/31 09:21:55;;;;;;;;;0.00;0.00;19.20;78.20;;;17.95;59.25;102127.06;5091514;28;8784;-63
2020/12/31 09:24:23;;;;;;;;;0.00;0.00;19.30;77.70;;;17.93;58.74;102118.31;5091575;28;8781;-64
2020/12/31 09:27:00;;;;;;;;;0.00;0.00;19.20;77.70;;;17.92;59.13;102121.97;5092106;28;9482;-63
2020/12/31 09:29:27;;;;;;;;;0.00;0.00;19.20;77.60;;;17.93;58.94;102118.31;5070674;28;8778;-63
2020/12/31 09:31:54;;;;;;;;;0.00;0.00;19.20;77.70;;;17.91;59.40;102120.25;5091015;28;8904;-63
2020/12/31 09:34:23;;;;;;;;;0.00;0.00;19.20;77.70;;;17.92;59.13;102138.00;5091530;28;8788;-63
2020/12/31 09:36:50;;;;;;;;;0.00;0.00;19.10;77.60;;;17.93;58.94;102145.03;5090352;28;8778;-62
2020/12/31 09:39:17;;;;;;;;;0.00;0.00;19.20;77.70;;;17.91;59.05;102145.19;5090902;28;8831;-62
2020/12/31 09:41:45;;;;;;;;;0.00;0.00;19.30;77.70;;;17.90;59.23;102143.44;5091510;28;8800;-63
2020/12/31 09:44:12;;;;;;;;;0.00;0.00;19.40;78.20;;;17.88;59.10;102134.69;5083722;28;8788;-62
2020/12/31 09:46:39;;;;;;;;;0.00;0.00;19.20;78.00;;;17.89;59.13;102147.09;5090137;28;8826;-62
2020/12/31 09:49:06;;;;;;;;;0.00;0.00;19.10;78.00;;;17.87;59.48;102157.06;5090493;28;8780;-62
2020/12/31 09:51:32;;;;;;;;;0.50;0.00;19.00;78.00;;;17.86;59.51;102150.03;5091786;28;8788;-63
2020/12/31 09:54:00;;;;;;;;;0.00;0.00;19.00;77.90;;;17.86;59.30;102154.50;5091554;28;8804;-63
2020/12/31 09:56:30;;;;;;;;;0.00;0.00;19.10;78.00;;;17.86;59.32;102165.19;5091595;28;8776;-62
2020/12/31 09:58:58;;;;;;;;;0.25;0.00;19.30;78.10;;;17.85;59.41;102179.53;5088772;28;8796;-63
2020/12/31 10:01:26;;;;;;;;;0.00;0.00;19.10;78.00;;;17.84;59.82;102181.34;5091070;28;8883;-63
2020/12/31 10:03:53;;;;;;;;;0.00;0.00;19.30;78.10;;;17.84;59.71;102188.53;5083585;28;8837;-63
2020/12/31 10:06:20;;;;;;;;;0.50;0.00;19.30;78.00;;;17.83;59.45;102181.44;5087326;28;8812;-62
2020/12/31 10:08:48;;;;;;;;;0.00;0.00;19.10;78.00;;;17.82;59.73;102179.75;5090694;28;8800;-63
2020/12/31 10:11:15;;;;;;;;;0.00;0.00;19.10;77.80;;;17.81;59.49;102178.91;5084618;28;8814;-61
2020/12/31 10:13:42;;;;;;;;;1.75;0.00;19.10;77.90;;;17.84;59.11;102196.53;5090062;28;8819;-61
2020/12/31 10:16:09;;;;;;;;;0.00;0.00;19.20;77.90;;;17.81;59.35;102197.63;5087196;28;8794;-61
2020/12/31 10:18:35;;;;;;;;;1.00;0.00;19.10;77.80;;;17.81;59.15;102196.75;5089587;28;8866;-61
2020/12/31 10:21:02;;;;;;;;;0.75;0.75;19.20;78.00;;;17.81;59.25;102188.72;5091802;28;9472;-62
2020/12/31 10:23:29;;;;;;;;;0.00;0.00;19.10;77.90;;;17.80;59.23;102187.88;5092126;28;8883;-61
2020/12/31 10:25:57;;;;;;;;;0.00;0.00;19.10;78.00;;;17.79;59.26;102199.53;5092698;28;8801;-62
2020/12/31 10:28:23;;;;;;;;;0.75;0.00;19.00;78.00;;;17.78;59.22;102196.00;5088905;28;8831;-61
2020/12/31 10:30:51;;;;;;;;;0.00;0.00;19.10;78.00;;;17.77;59.19;102194.28;5091562;28;8772;-61